Oakland, California
Current Conditions -  °F | °C
As of 5:53 PM on Saturday 20 Dec 2014 (Local Time) from KOAK Reporting Station
Overcast Overcast  
Wind Chill: 58°   Ceiling: 4000
Heat Index: 58°   Visibility: 10mi
Dew Point: 52°   Wind: 7mph
Humidity: 81%   Direction: 180°S
Pressure: 30.22"   Gusts: NA
Location:  37.81°N, 122.27°W
Report Text: KOAK 210153Z 18006KT 10SM BKN040 BKN070 OVC095 14/11 A3022 RMK AO2 SLP234 T01440111
Loading
Personal Weather Stations






























Interactive Weather Map New forecast layout! Learn more

10-Day Weather Forecast

Advertisements
Track Severe Weather on mobile